sensor_id;sensor_type;location;lat;lon;timestamp;pressure;altitude;pressure_sealevel;temperature;humidity
70304;BME280;57712;48.752;11.348;2024-02-21T00:00:31;98523.16;;;6.40;100.00
70304;BME280;57712;48.752;11.348;2024-02-21T00:02:58;98525.88;;;6.40;100.00
70304;BME280;57712;48.752;11.348;2024-02-21T00:05:28;98525.16;;;6.43;100.00
70304;BME280;57712;48.752;11.348;2024-02-21T00:07:55;98518.88;;;6.39;100.00
70304;BME280;57712;48.752;11.348;2024-02-21T00:10:22;98510.72;;;6.39;100.00
70304;BME280;57712;48.752;11.348;2024-02-21T00:12:49;98507.00;;;6.50;100.00
70304;BME280;57712;48.752;11.348;2024-02-21T00:15:16;98505.06;;;6.51;100.00
70304;BME280;57712;48.752;11.348;2024-02-21T00:17:44;98499.50;;;6.44;100.00
70304;BME280;57712;48.752;11.348;2024-02-21T00:20:11;98499.63;;;6.51;100.00
70304;BME280;57712;48.752;11.348;2024-02-21T00:22:38;98495.75;;;6.52;100.00
70304;BME280;57712;48.752;11.348;2024-02-21T00:25:05;98495.75;;;6.52;100.00
70304;BME280;57712;48.752;11.348;2024-02-21T00:27:32;98494.78;;;6.41;100.00
70304;BME280;57712;48.752;11.348;2024-02-21T00:29:58;98485.59;;;6.49;100.00
70304;BME280;57712;48.752;11.348;2024-02-21T00:32:28;98494.91;;;6.48;100.00
70304;BME280;57712;48.752;11.348;2024-02-21T00:34:58;98487.03;;;6.43;100.00
70304;BME280;57712;48.752;11.348;2024-02-21T00:37:25;98482.97;;;6.29;100.00
70304;BME280;57712;48.752;11.348;2024-02-21T00:39:54;98483.13;;;6.40;100.00
70304;BME280;57712;48.752;11.348;2024-02-21T00:42:21;98477.16;;;6.57;100.00
70304;BME280;57712;48.752;11.348;2024-02-21T00:44:47;98475.31;;;6.65;100.00
70304;BME280;57712;48.752;11.348;2024-02-21T00:47:14;98472.91;;;6.60;100.00
70304;BME280;57712;48.752;11.348;2024-02-21T00:49:41;98478.63;;;6.51;100.00
70304;BME280;57712;48.752;11.348;2024-02-21T00:52:08;98470.09;;;6.53;100.00
70304;BME280;57712;48.752;11.348;2024-02-21T00:54:34;98472.81;;;6.53;100.00
70304;BME280;57712;48.752;11.348;2024-02-21T00:57:15;98470.19;;;6.60;100.00
70304;BME280;57712;48.752;11.348;2024-02-21T00:59:42;98462.41;;;6.58;100.00
70304;BME280;57712;48.752;11.348;2024-02-21T01:02:09;98465.94;;;6.62;100.00
70304;BME280;57712;48.752;11.348;2024-02-21T01:04:36;98457.75;;;6.59;100.00
70304;BME280;57712;48.752;11.348;2024-02-21T01:07:03;98460.56;;;6.40;100.00
70304;BME280;57712;48.752;11.348;2024-02-21T01:09:30;98464.03;;;6.66;100.00
70304;BME280;57712;48.752;11.348;2024-02-21T01:11:56;98460.06;;;6.57;100.00
70304;BME280;57712;48.752;11.348;2024-02-21T01:14:23;98452.31;;;6.62;100.00
70304;BME280;57712;48.752;11.348;2024-02-21T01:16:50;98449.81;;;6.47;100.00
70304;BME280;57712;48.752;11.348;2024-02-21T01:19:16;98453.72;;;6.49;100.00
70304;BME280;57712;48.752;11.348;2024-02-21T01:21:43;98452.59;;;6.54;100.00
70304;BME280;57712;48.752;11.348;2024-02-21T01:24:10;98448.94;;;6.43;100.00
70304;BME280;57712;48.752;11.348;2024-02-21T01:26:37;98451.53;;;6.62;100.00
70304;BME280;57712;48.752;11.348;2024-02-21T01:29:04;98443.63;;;6.50;100.00
70304;BME280;57712;48.752;11.348;2024-02-21T01:31:30;98439.09;;;6.61;100.00
70304;BME280;57712;48.752;11.348;2024-02-21T01:33:57;98432.09;;;6.60;100.00
70304;BME280;57712;48.752;11.348;2024-02-21T01:36:24;98424.81;;;6.41;100.00
70304;BME280;57712;48.752;11.348;2024-02-21T01:38:51;98432.72;;;6.50;100.00
70304;BME280;57712;48.752;11.348;2024-02-21T01:41:18;98423.78;;;6.49;100.00
70304;BME280;57712;48.752;11.348;2024-02-21T01:43:44;98423.03;;;6.52;100.00
70304;BME280;57712;48.752;11.348;2024-02-21T01:46:11;98414.84;;;6.49;100.00
70304;BME280;57712;48.752;11.348;2024-02-21T01:48:38;98412.03;;;6.45;100.00
70304;BME280;57712;48.752;11.348;2024-02-21T01:51:05;98402.66;;;6.39;100.00
70304;BME280;57712;48.752;11.348;2024-02-21T01:53:38;98391.25;;;6.60;100.00
70304;BME280;57712;48.752;11.348;2024-02-21T01:56:08;98386.97;;;6.59;100.00
70304;BME280;57712;48.752;11.348;2024-02-21T01:58:36;98386.22;;;6.62;100.00
70304;BME280;57712;48.752;11.348;2024-02-21T02:01:04;98387.56;;;6.45;100.00
70304;BME280;57712;48.752;11.348;2024-02-21T02:03:30;98383.78;;;6.53;100.00
70304;BME280;57712;48.752;11.348;2024-02-21T02:05:57;98372.09;;;6.53;100.00
70304;BME280;57712;48.752;11.348;2024-02-21T02:08:24;98375.97;;;6.52;100.00
70304;BME280;57712;48.752;11.348;2024-02-21T02:10:52;98372.72;;;6.39;100.00
70304;BME280;57712;48.752;11.348;2024-02-21T02:13:19;98374.06;;;6.56;100.00
70304;BME280;57712;48.752;11.348;2024-02-21T02:15:48;98365.91;;;6.56;100.00
70304;BME280;57712;48.752;11.348;2024-02-21T02:18:16;98366.56;;;6.46;100.00
70304;BME280;57712;48.752;11.348;2024-02-21T02:20:44;98367.13;;;6.58;100.00
70304;BME280;57712;48.752;11.348;2024-02-21T02:23:29;98365.25;;;6.66;100.00
70304;BME280;57712;48.752;11.348;2024-02-21T02:25:56;98366.00;;;6.63;100.00
70304;BME280;57712;48.752;11.348;2024-02-21T02:28:23;98357.75;;;6.56;100.00
70304;BME280;57712;48.752;11.348;2024-02-21T02:30:50;98360.81;;;6.51;100.00
70304;BME280;57712;48.752;11.348;2024-02-21T02:33:17;98354.31;;;6.59;100.00
70304;BME280;57712;48.752;11.348;2024-02-21T02:35:44;98347.19;;;6.51;100.00
70304;BME280;57712;48.752;11.348;2024-02-21T02:38:12;98346.84;;;6.56;100.00
70304;BME280;57712;48.752;11.348;2024-02-21T02:40:40;98347.16;;;6.47;100.00
70304;BME280;57712;48.752;11.348;2024-02-21T02:43:08;98343.09;;;6.34;100.00
70304;BME280;57712;48.752;11.348;2024-02-21T02:45:35;98338.94;;;6.44;100.00
70304;BME280;57712;48.752;11.348;2024-02-21T02:48:02;98334.56;;;6.35;100.00
70304;BME280;57712;48.752;11.348;2024-02-21T02:50:32;98342.41;;;6.41;100.00
70304;BME280;57712;48.752;11.348;2024-02-21T02:52:58;98340.09;;;6.43;100.00
70304;BME280;57712;48.752;11.348;2024-02-21T02:55:25;98338.63;;;6.49;100.00
70304;BME280;57712;48.752;11.348;2024-02-21T02:57:53;98339.16;;;6.61;100.00
70304;BME280;57712;48.752;11.348;2024-02-21T03:00:20;98341.75;;;6.51;100.00
70304;BME280;57712;48.752;11.348;2024-02-21T03:02:49;98341.91;;;6.65;100.00
70304;BME280;57712;48.752;11.348;2024-02-21T03:05:18;98345.06;;;6.67;100.00
70304;BME280;57712;48.752;11.348;2024-02-21T03:07:46;98343.53;;;6.70;100.00
70304;BME280;57712;48.752;11.348;2024-02-21T03:10:14;98344.38;;;6.77;100.00
70304;BME280;57712;48.752;11.348;2024-02-21T03:12:44;98338.00;;;6.62;100.00
70304;BME280;57712;48.752;11.348;2024-02-21T03:15:13;98340.84;;;6.73;100.00
70304;BME280;57712;48.752;11.348;2024-02-21T03:17:41;98337.38;;;6.76;100.00
70304;BME280;57712;48.752;11.348;2024-02-21T03:20:09;98332.34;;;6.78;100.00
70304;BME280;57712;48.752;11.348;2024-02-21T03:22:39;98322.28;;;6.86;100.00
70304;BME280;57712;48.752;11.348;2024-02-21T03:25:07;98328.53;;;6.86;100.00
70304;BME280;57712;48.752;11.348;2024-02-21T03:27:35;98320.31;;;6.79;100.00
70304;BME280;57712;48.752;11.348;2024-02-21T03:30:02;98329.53;;;6.71;100.00
70304;BME280;57712;48.752;11.348;2024-02-21T03:32:31;98323.34;;;6.74;100.00
70304;BME280;57712;48.752;11.348;2024-02-21T03:34:57;98316.34;;;6.73;100.00
70304;BME280;57712;48.752;11.348;2024-02-21T03:37:24;98313.97;;;6.68;100.00
70304;BME280;57712;48.752;11.348;2024-02-21T03:39:51;98314.91;;;6.49;100.00
70304;BME280;57712;48.752;11.348;2024-02-21T03:42:17;98319.63;;;6.56;100.00
70304;BME280;57712;48.752;11.348;2024-02-21T03:44:44;98319.56;;;6.49;100.00
70304;BME280;57712;48.752;11.348;2024-02-21T03:47:11;98316.25;;;6.66;100.00
70304;BME280;57712;48.752;11.348;2024-02-21T03:49:38;98311.19;;;6.64;100.00
70304;BME280;57712;48.752;11.348;2024-02-21T03:52:05;98317.56;;;6.46;100.00
70304;BME280;57712;48.752;11.348;2024-02-21T03:54:32;98312.88;;;6.43;100.00
70304;BME280;57712;48.752;11.348;2024-02-21T03:56:59;98319.03;;;6.36;100.00
70304;BME280;57712;48.752;11.348;2024-02-21T03:59:25;98315.56;;;6.39;100.00
70304;BME280;57712;48.752;11.348;2024-02-21T04:01:52;98315.28;;;6.48;100.00
70304;BME280;57712;48.752;11.348;2024-02-21T04:04:20;98313.22;;;6.38;100.00
70304;BME280;57712;48.752;11.348;2024-02-21T04:06:48;98304.34;;;6.44;100.00
70304;BME280;57712;48.752;11.348;2024-02-21T04:09:15;98297.28;;;6.36;100.00
70304;BME280;57712;48.752;11.348;2024-02-21T04:11:42;98297.31;;;6.40;100.00
70304;BME280;57712;48.752;11.348;2024-02-21T04:14:09;98305.06;;;6.38;100.00
70304;BME280;57712;48.752;11.348;2024-02-21T04:16:38;98296.44;;;6.32;100.00
70304;BME280;57712;48.752;11.348;2024-02-21T04:19:06;98294.66;;;6.47;100.00
70304;BME280;57712;48.752;11.348;2024-02-21T04:21:33;98284.84;;;6.39;100.00
70304;BME280;57712;48.752;11.348;2024-02-21T04:24:00;98286.81;;;6.42;100.00
70304;BME280;57712;48.752;11.348;2024-02-21T04:26:30;98277.84;;;6.38;100.00
70304;BME280;57712;48.752;11.348;2024-02-21T04:28:56;98271.63;;;6.37;100.00
70304;BME280;57712;48.752;11.348;2024-02-21T04:31:23;98267.38;;;6.40;100.00
70304;BME280;57712;48.752;11.348;2024-02-21T04:33:51;98264.50;;;6.25;100.00
70304;BME280;57712;48.752;11.348;2024-02-21T04:36:18;98262.84;;;6.54;100.00
70304;BME280;57712;48.752;11.348;2024-02-21T04:38:45;98258.31;;;6.28;100.00
70304;BME280;57712;48.752;11.348;2024-02-21T04:41:12;98248.25;;;6.32;100.00
70304;BME280;57712;48.752;11.348;2024-02-21T04:43:39;98252.09;;;6.28;100.00
70304;BME280;57712;48.752;11.348;2024-02-21T04:46:05;98251.03;;;6.40;100.00
70304;BME280;57712;48.752;11.348;2024-02-21T04:48:32;98244.34;;;6.33;100.00
70304;BME280;57712;48.752;11.348;2024-02-21T04:50:59;98239.75;;;6.38;100.00
70304;BME280;57712;48.752;11.348;2024-02-21T04:53:26;98234.31;;;6.38;100.00
70304;BME280;57712;48.752;11.348;2024-02-21T04:55:52;98233.47;;;6.33;100.00
70304;BME280;57712;48.752;11.348;2024-02-21T04:58:19;98237.59;;;6.20;100.00
70304;BME280;57712;48.752;11.348;2024-02-21T05:00:46;98237.75;;;6.01;100.00
70304;BME280;57712;48.752;11.348;2024-02-21T05:03:13;98233.91;;;6.02;100.00
70304;BME280;57712;48.752;11.348;2024-02-21T05:05:40;98241.66;;;6.00;100.00
70304;BME280;57712;48.752;11.348;2024-02-21T05:08:07;98227.78;;;6.12;100.00
70304;BME280;57712;48.752;11.348;2024-02-21T05:10:34;98228.56;;;6.13;100.00
70304;BME280;57712;48.752;11.348;2024-02-21T05:13:01;98226.13;;;6.04;100.00
70304;BME280;57712;48.752;11.348;2024-02-21T05:15:28;98219.31;;;6.17;100.00
70304;BME280;57712;48.752;11.348;2024-02-21T05:17:55;98220.56;;;5.93;100.00
70304;BME280;57712;48.752;11.348;2024-02-21T05:20:21;98215.25;;;6.04;100.00
70304;BME280;57712;48.752;11.348;2024-02-21T05:22:48;98211.47;;;6.12;100.00
70304;BME280;57712;48.752;11.348;2024-02-21T05:25:15;98218.81;;;6.08;100.00
70304;BME280;57712;48.752;11.348;2024-02-21T05:27:42;98221.53;;;6.08;100.00
70304;BME280;57712;48.752;11.348;2024-02-21T05:30:09;98202.91;;;6.10;100.00
70304;BME280;57712;48.752;11.348;2024-02-21T05:32:36;98194.38;;;6.12;100.00
70304;BME280;57712;48.752;11.348;2024-02-21T05:35:03;98194.34;;;6.08;100.00
70304;BME280;57712;48.752;11.348;2024-02-21T05:37:30;98195.09;;;6.05;100.00
70304;BME280;57712;48.752;11.348;2024-02-21T05:39:57;98194.34;;;6.08;100.00
70304;BME280;57712;48.752;11.348;2024-02-21T05:42:23;98191.06;;;6.25;100.00
70304;BME280;57712;48.752;11.348;2024-02-21T05:44:50;98188.16;;;6.11;100.00
70304;BME280;57712;48.752;11.348;2024-02-21T05:47:16;98201.56;;;6.27;100.00
70304;BME280;57712;48.752;11.348;2024-02-21T05:49:43;98190.28;;;6.28;100.00
70304;BME280;57712;48.752;11.348;2024-02-21T05:52:10;98192.34;;;6.39;100.00
70304;BME280;57712;48.752;11.348;2024-02-21T05:54:38;98184.44;;;6.26;100.00
70304;BME280;57712;48.752;11.348;2024-02-21T05:57:07;98180.84;;;6.15;100.00
70304;BME280;57712;48.752;11.348;2024-02-21T05:59:34;98175.13;;;6.27;100.00
70304;BME280;57712;48.752;11.348;2024-02-21T06:02:03;98181.38;;;6.31;100.00
70304;BME280;57712;48.752;11.348;2024-02-21T06:04:30;98181.16;;;6.10;100.00
70304;BME280;57712;48.752;11.348;2024-02-21T06:06:57;98165.81;;;6.28;100.00
70304;BME280;57712;48.752;11.348;2024-02-21T06:09:24;98164.63;;;6.26;100.00
70304;BME280;57712;48.752;11.348;2024-02-21T06:11:51;98173.69;;;6.41;100.00
70304;BME280;57712;48.752;11.348;2024-02-21T06:14:18;98171.25;;;6.28;100.00
70304;BME280;57712;48.752;11.348;2024-02-21T06:16:46;98160.09;;;6.41;100.00
70304;BME280;57712;48.752;11.348;2024-02-21T06:19:12;98164.72;;;6.36;100.00
70304;BME280;57712;48.752;11.348;2024-02-21T06:21:39;98155.72;;;6.32;100.00
70304;BME280;57712;48.752;11.348;2024-02-21T06:24:06;98162.72;;;6.33;100.00
70304;BME280;57712;48.752;11.348;2024-02-21T06:26:33;98171.09;;;6.14;100.00
70304;BME280;57712;48.752;11.348;2024-02-21T06:29:00;98166.56;;;6.25;100.00
70304;BME280;57712;48.752;11.348;2024-02-21T06:31:28;98172.72;;;6.22;100.00
70304;BME280;57712;48.752;11.348;2024-02-21T06:33:55;98179.00;;;6.26;100.00
70304;BME280;57712;48.752;11.348;2024-02-21T06:36:22;98181.03;;;5.99;100.00
70304;BME280;57712;48.752;11.348;2024-02-21T06:38:49;98182.69;;;6.07;100.00
70304;BME280;57712;48.752;11.348;2024-02-21T06:41:16;98185.81;;;6.10;100.00
70304;BME280;57712;48.752;11.348;2024-02-21T06:43:45;98185.06;;;6.13;100.00
70304;BME280;57712;48.752;11.348;2024-02-21T06:46:26;98173.81;;;6.14;100.00
70304;BME280;57712;48.752;11.348;2024-02-21T06:48:54;98166.50;;;6.22;100.00
70304;BME280;57712;48.752;11.348;2024-02-21T06:51:24;98168.34;;;6.11;100.00
70304;BME280;57712;48.752;11.348;2024-02-21T06:53:52;98169.97;;;6.15;100.00
70304;BME280;57712;48.752;11.348;2024-02-21T06:56:19;98172.19;;;6.06;100.00
70304;BME280;57712;48.752;11.348;2024-02-21T06:58:46;98171.03;;;6.07;100.00
70304;BME280;57712;48.752;11.348;2024-02-21T07:01:13;98171.84;;;6.11;100.00
70304;BME280;57712;48.752;11.348;2024-02-21T07:03:39;98177.25;;;6.07;100.00
70304;BME280;57712;48.752;11.348;2024-02-21T07:06:06;98186.50;;;6.03;100.00
70304;BME280;57712;48.752;11.348;2024-02-21T07:08:35;98185.78;;;6.06;100.00
70304;BME280;57712;48.752;11.348;2024-02-21T07:11:01;98191.38;;;6.20;100.00
70304;BME280;57712;48.752;11.348;2024-02-21T07:13:28;98188.16;;;6.11;100.00
70304;BME280;57712;48.752;11.348;2024-02-21T07:15:57;98186.34;;;6.22;100.00
70304;BME280;57712;48.752;11.348;2024-02-21T07:18:24;98188.13;;;6.07;100.00
70304;BME280;57712;48.752;11.348;2024-02-21T07:20:54;98188.28;;;6.22;100.00
70304;BME280;57712;48.752;11.348;2024-02-21T07:23:20;98186.72;;;6.21;100.00
70304;BME280;57712;48.752;11.348;2024-02-21T07:25:47;98192.56;;;6.23;100.00
70304;BME280;57712;48.752;11.348;2024-02-21T07:28:14;98184.97;;;6.43;100.00
70304;BME280;57712;48.752;11.348;2024-02-21T07:30:42;98181.47;;;6.39;100.00
70304;BME280;57712;48.752;11.348;2024-02-21T07:33:09;98182.34;;;6.50;100.00
70304;BME280;57712;48.752;11.348;2024-02-21T07:35:36;98172.22;;;6.50;100.00
70304;BME280;57712;48.752;11.348;2024-02-21T07:38:08;98171.44;;;6.46;100.00
70304;BME280;57712;48.752;11.348;2024-02-21T07:40:39;98164.59;;;6.66;100.00
70304;BME280;57712;48.752;11.348;2024-02-21T07:43:06;98164.63;;;6.70;100.00
70304;BME280;57712;48.752;11.348;2024-02-21T07:45:33;98167.19;;;7.00;100.00
70304;BME280;57712;48.752;11.348;2024-02-21T07:48:00;98169.63;;;7.12;100.00
70304;BME280;57712;48.752;11.348;2024-02-21T07:50:26;98160.53;;;6.94;100.00
70304;BME280;57712;48.752;11.348;2024-02-21T07:52:53;98153.34;;;7.23;100.00
70304;BME280;57712;48.752;11.348;2024-02-21T07:55:20;98152.59;;;7.30;100.00
70304;BME280;57712;48.752;11.348;2024-02-21T07:57:47;98145.59;;;7.32;100.00
70304;BME280;57712;48.752;11.348;2024-02-21T08:00:14;98135.25;;;7.63;100.00
70304;BME280;57712;48.752;11.348;2024-02-21T08:02:48;98134.72;;;7.39;100.00
70304;BME280;57712;48.752;11.348;2024-02-21T08:05:15;98134.00;;;7.49;100.00
70304;BME280;57712;48.752;11.348;2024-02-21T08:07:41;98148.44;;;7.53;100.00
70304;BME280;57712;48.752;11.348;2024-02-21T08:10:08;98139.13;;;7.65;100.00
70304;BME280;57712;48.752;11.348;2024-02-21T08:12:35;98145.06;;;7.81;100.00
70304;BME280;57712;48.752;11.348;2024-02-21T08:15:02;98149.03;;;8.13;100.00
70304;BME280;57712;48.752;11.348;2024-02-21T08:17:35;98152.47;;;7.92;100.00
70304;BME280;57712;48.752;11.348;2024-02-21T08:20:02;98136.44;;;7.76;100.00
70304;BME280;57712;48.752;11.348;2024-02-21T08:22:29;98143.47;;;7.77;100.00
70304;BME280;57712;48.752;11.348;2024-02-21T08:24:56;98150.44;;;7.71;100.00
70304;BME280;57712;48.752;11.348;2024-02-21T08:27:23;98149.69;;;7.81;100.00
70304;BME280;57712;48.752;11.348;2024-02-21T08:29:51;98151.38;;;8.18;100.00
70304;BME280;57712;48.752;11.348;2024-02-21T08:32:18;98148.97;;;7.88;100.00
70304;BME280;57712;48.752;11.348;2024-02-21T08:34:44;98134.13;;;7.74;100.00
70304;BME280;57712;48.752;11.348;2024-02-21T08:37:11;98128.31;;;7.90;100.00
70304;BME280;57712;48.752;11.348;2024-02-21T08:39:41;98127.19;;;8.05;100.00
70304;BME280;57712;48.752;11.348;2024-02-21T08:42:08;98117.03;;;7.95;100.00
70304;BME280;57712;48.752;11.348;2024-02-21T08:44:34;98116.66;;;8.07;100.00
70304;BME280;57712;48.752;11.348;2024-02-21T08:47:01;98106.53;;;8.11;100.00
70304;BME280;57712;48.752;11.348;2024-02-21T08:49:31;98112.75;;;8.12;100.00
70304;BME280;57712;48.752;11.348;2024-02-21T08:52:01;98115.56;;;8.37;100.00
70304;BME280;57712;48.752;11.348;2024-02-21T08:54:29;98111.22;;;8.07;100.00
70304;BME280;57712;48.752;11.348;2024-02-21T08:56:56;98103.88;;;8.36;100.00
70304;BME280;57712;48.752;11.348;2024-02-21T08:59:23;98099.19;;;8.80;100.00
70304;BME280;57712;48.752;11.348;2024-02-21T09:01:51;98098.41;;;8.76;100.00
70304;BME280;57712;48.752;11.348;2024-02-21T09:04:19;98097.22;;;8.27;100.00
70304;BME280;57712;48.752;11.348;2024-02-21T09:06:46;98098.44;;;8.47;100.00
70304;BME280;57712;48.752;11.348;2024-02-21T09:09:13;98098.00;;;8.88;100.00
70304;BME280;57712;48.752;11.348;2024-02-21T09:11:40;98096.03;;;8.85;100.00
70304;BME280;57712;48.752;11.348;2024-02-21T09:14:09;98093.72;;;8.80;100.00
70304;BME280;57712;48.752;11.348;2024-02-21T09:16:36;98087.44;;;9.04;100.00
70304;BME280;57712;48.752;11.348;2024-02-21T09:19:03;98087.47;;;8.97;100.00
70304;BME280;57712;48.752;11.348;2024-02-21T09:21:30;98089.03;;;8.80;100.00
70304;BME280;57712;48.752;11.348;2024-02-21T09:23:56;98067.94;;;8.95;100.00
70304;BME280;57712;48.752;11.348;2024-02-21T09:26:26;98071.88;;;8.76;100.00
70304;BME280;57712;48.752;11.348;2024-02-21T09:28:52;98064.06;;;8.89;100.00
70304;BME280;57712;48.752;11.348;2024-02-21T09:31:19;98055.81;;;9.03;100.00
70304;BME280;57712;48.752;11.348;2024-02-21T09:33:46;98057.63;;;9.49;100.00
70304;BME280;57712;48.752;11.348;2024-02-21T09:36:14;98062.66;;;9.54;100.00
70304;BME280;57712;48.752;11.348;2024-02-21T09:38:41;98058.56;;;9.87;100.00
70304;BME280;57712;48.752;11.348;2024-02-21T09:41:18;98056.81;;;9.52;100.00
70304;BME280;57712;48.752;11.348;2024-02-21T09:43:51;98052.03;;;9.70;100.00
70304;BME280;57712;48.752;11.348;2024-02-21T09:46:30;98050.16;;;10.19;100.00
70304;BME280;57712;48.752;11.348;2024-02-21T09:51:39;98032.25;;;10.07;100.00
70304;BME280;57712;48.752;11.348;2024-02-21T09:54:07;98038.63;;;10.46;100.00
70304;BME280;57712;48.752;11.348;2024-02-21T09:56:44;98036.63;;;10.53;100.00
70304;BME280;57712;48.752;11.348;2024-02-21T09:59:11;98031.59;;;10.45;100.00
70304;BME280;57712;48.752;11.348;2024-02-21T10:01:38;98034.25;;;10.55;100.00
70304;BME280;57712;48.752;11.348;2024-02-21T10:04:05;98033.28;;;10.76;100.00
70304;BME280;57712;48.752;11.348;2024-02-21T10:06:32;98032.34;;;10.49;100.00
70304;BME280;57712;48.752;11.348;2024-02-21T10:08:59;98037.63;;;10.70;100.00
70304;BME280;57712;48.752;11.348;2024-02-21T10:11:26;98025.53;;;10.67;100.00
70304;BME280;57712;48.752;11.348;2024-02-21T10:14:04;98030.09;;;10.36;100.00
70304;BME280;57712;48.752;11.348;2024-02-21T10:16:32;98027.75;;;10.80;100.00
70304;BME280;57712;48.752;11.348;2024-02-21T10:19:00;98016.97;;;10.99;100.00
70304;BME280;57712;48.752;11.348;2024-02-21T10:21:27;98023.59;;;11.02;100.00
70304;BME280;57712;48.752;11.348;2024-02-21T10:23:54;98019.03;;;10.88;100.00
70304;BME280;57712;48.752;11.348;2024-02-21T10:26:21;98013.00;;;11.35;100.00
70304;BME280;57712;48.752;11.348;2024-02-21T10:28:48;98013.06;;;11.31;100.00
70304;BME280;57712;48.752;11.348;2024-02-21T10:31:28;98004.88;;;10.93;100.00
70304;BME280;57712;48.752;11.348;2024-02-21T10:34:00;97991.56;;;11.56;100.00
70304;BME280;57712;48.752;11.348;2024-02-21T10:36:30;97997.34;;;11.35;100.00
70304;BME280;57712;48.752;11.348;2024-02-21T10:38:57;97985.06;;;11.74;100.00
70304;BME280;57712;48.752;11.348;2024-02-21T10:41:24;97987.16;;;12.40;100.00
70304;BME280;57712;48.752;11.348;2024-02-21T10:43:52;97992.44;;;12.31;100.00
70304;BME280;57712;48.752;11.348;2024-02-21T10:46:23;97977.19;;;12.50;100.00
70304;BME280;57712;48.752;11.348;2024-02-21T10:49:01;97983.78;;;12.09;100.00
70304;BME280;57712;48.752;11.348;2024-02-21T10:51:33;97970.19;;;11.98;100.00
70304;BME280;57712;48.752;11.348;2024-02-21T10:56:51;97961.63;;;12.43;97.13
70304;BME280;57712;48.752;11.348;2024-02-21T10:59:18;97961.00;;;12.55;96.97
70304;BME280;57712;48.752;11.348;2024-02-21T11:01:45;97948.25;;;13.44;95.15
70304;BME280;57712;48.752;11.348;2024-02-21T11:04:12;97941.72;;;12.79;95.75
70304;BME280;57712;48.752;11.348;2024-02-21T11:06:40;97949.03;;;12.22;98.91
70304;BME280;57712;48.752;11.348;2024-02-21T11:09:09;97940.59;;;13.36;96.71
70304;BME280;57712;48.752;11.348;2024-02-21T11:11:44;97930.63;;;13.02;92.74
70304;BME280;57712;48.752;11.348;2024-02-21T11:14:18;97938.13;;;13.21;92.00
70304;BME280;57712;48.752;11.348;2024-02-21T11:16:45;97931.31;;;14.27;93.24
70304;BME280;57712;48.752;11.348;2024-02-21T11:19:20;97918.63;;;13.68;89.76
70304;BME280;57712;48.752;11.348;2024-02-21T11:21:48;97921.81;;;13.67;88.30
70304;BME280;57712;48.752;11.348;2024-02-21T11:24:26;97921.00;;;13.50;95.74
70304;BME280;57712;48.752;11.348;2024-02-21T11:26:53;97918.25;;;13.50;92.80
70304;BME280;57712;48.752;11.348;2024-02-21T11:29:24;97913.94;;;13.49;94.03
70304;BME280;57712;48.752;11.348;2024-02-21T11:31:52;97912.44;;;13.28;92.47
70304;BME280;57712;48.752;11.348;2024-02-21T11:34:19;97908.34;;;13.36;92.65
70304;BME280;57712;48.752;11.348;2024-02-21T11:36:50;97897.28;;;12.60;94.33
70304;BME280;57712;48.752;11.348;2024-02-21T11:39:18;97898.59;;;13.12;94.48
70304;BME280;57712;48.752;11.348;2024-02-21T11:42:03;97890.72;;;13.50;90.40
70304;BME280;57712;48.752;11.348;2024-02-21T11:44:31;97870.31;;;13.11;89.43
70304;BME280;57712;48.752;11.348;2024-02-21T11:46:58;97871.13;;;13.48;86.52
70304;BME280;57712;48.752;11.348;2024-02-21T11:49:29;97864.91;;;14.09;87.41
70304;BME280;57712;48.752;11.348;2024-02-21T11:52:02;97856.94;;;14.98;80.81
70304;BME280;57712;48.752;11.348;2024-02-21T11:54:33;97852.56;;;14.42;80.29
70304;BME280;57712;48.752;11.348;2024-02-21T11:57:01;97855.25;;;14.01;77.58
70304;BME280;57712;48.752;11.348;2024-02-21T11:59:30;97850.56;;;15.01;76.87
70304;BME280;57712;48.752;11.348;2024-02-21T12:01:59;97844.31;;;14.42;76.52
70304;BME280;57712;48.752;11.348;2024-02-21T12:04:26;97839.41;;;15.30;73.90
70304;BME280;57712;48.752;11.348;2024-02-21T12:06:54;97824.81;;;15.42;69.00
70304;BME280;57712;48.752;11.348;2024-02-21T12:09:23;97822.81;;;15.55;67.57
70304;BME280;57712;48.752;11.348;2024-02-21T12:12:03;97819.25;;;16.15;66.02
70304;BME280;57712;48.752;11.348;2024-02-21T12:14:34;97800.75;;;15.30;66.26
70304;BME280;57712;48.752;11.348;2024-02-21T12:17:02;97804.53;;;15.23;65.72
70304;BME280;57712;48.752;11.348;2024-02-21T12:19:33;97797.66;;;15.53;64.67
70304;BME280;57712;48.752;11.348;2024-02-21T12:22:04;97803.78;;;16.17;61.50
70304;BME280;57712;48.752;11.348;2024-02-21T12:24:35;97789.28;;;15.44;63.68
70304;BME280;57712;48.752;11.348;2024-02-21T12:27:02;97782.81;;;17.44;60.74
70304;BME280;57712;48.752;11.348;2024-02-21T12:29:30;97783.94;;;15.63;62.83
70304;BME280;57712;48.752;11.348;2024-02-21T12:31:57;97784.22;;;15.90;61.25
70304;BME280;57712;48.752;11.348;2024-02-21T12:34:24;97776.53;;;16.51;57.60
70304;BME280;57712;48.752;11.348;2024-02-21T12:36:54;97763.44;;;14.62;62.35
70304;BME280;57712;48.752;11.348;2024-02-21T12:39:20;97769.56;;;14.40;63.01
70304;BME280;57712;48.752;11.348;2024-02-21T12:41:47;97766.66;;;14.98;63.93
70304;BME280;57712;48.752;11.348;2024-02-21T12:44:15;97756.38;;;15.37;61.33
70304;BME280;57712;48.752;11.348;2024-02-21T12:46:43;97756.91;;;15.92;65.29
70304;BME280;57712;48.752;11.348;2024-02-21T12:49:10;97746.75;;;15.89;60.11
70304;BME280;57712;48.752;11.348;2024-02-21T12:51:37;97749.94;;;15.66;59.11
70304;BME280;57712;48.752;11.348;2024-02-21T12:54:05;97737.69;;;15.54;57.88
70304;BME280;57712;48.752;11.348;2024-02-21T12:56:32;97745.03;;;15.22;58.50
70304;BME280;57712;48.752;11.348;2024-02-21T12:58:59;97727.09;;;15.40;59.56